sensor_id;sensor_type;location;lat;lon;timestamp;P1;durP1;ratioP1;P2;durP2;ratioP2
39156;SDS011;24889;42.424;25.604;2022-10-29T00:01:02;10.13;;;5.33;;
39156;SDS011;24889;42.424;25.604;2022-10-29T00:03:28;8.53;;;3.80;;
39156;SDS011;24889;42.424;25.604;2022-10-29T00:05:57;7.83;;;4.57;;
39156;SDS011;24889;42.424;25.604;2022-10-29T00:08:28;7.75;;;3.75;;
39156;SDS011;24889;42.424;25.604;2022-10-29T00:10:55;8.00;;;3.75;;
39156;SDS011;24889;42.424;25.604;2022-10-29T00:13:30;5.85;;;3.83;;
39156;SDS011;24889;42.424;25.604;2022-10-29T00:15:55;7.00;;;3.80;;
39156;SDS011;24889;42.424;25.604;2022-10-29T00:18:21;7.97;;;3.93;;
39156;SDS011;24889;42.424;25.604;2022-10-29T00:20:46;7.50;;;3.83;;
39156;SDS011;24889;42.424;25.604;2022-10-29T00:28:03;6.50;;;3.97;;
39156;SDS011;24889;42.424;25.604;2022-10-29T00:30:29;5.30;;;3.60;;
39156;SDS011;24889;42.424;25.604;2022-10-29T00:32:54;7.93;;;4.40;;
39156;SDS011;24889;42.424;25.604;2022-10-29T00:35:20;7.90;;;3.97;;
39156;SDS011;24889;42.424;25.604;2022-10-29T00:37:45;8.63;;;4.20;;
39156;SDS011;24889;42.424;25.604;2022-10-29T00:40:11;13.60;;;4.40;;
39156;SDS011;24889;42.424;25.604;2022-10-29T00:42:36;7.45;;;4.07;;
39156;SDS011;24889;42.424;25.604;2022-10-29T00:45:02;5.67;;;4.00;;
39156;SDS011;24889;42.424;25.604;2022-10-29T00:47:28;7.53;;;4.10;;
39156;SDS011;24889;42.424;25.604;2022-10-29T00:55:04;9.25;;;4.75;;
39156;SDS011;24889;42.424;25.604;2022-10-29T00:57:34;6.10;;;4.47;;
39156;SDS011;24889;42.424;25.604;2022-10-29T01:00:02;10.13;;;5.07;;
39156;SDS011;24889;42.424;25.604;2022-10-29T01:02:28;7.72;;;4.35;;
39156;SDS011;24889;42.424;25.604;2022-10-29T01:04:57;8.93;;;4.90;;
39156;SDS011;24889;42.424;25.604;2022-10-29T01:07:24;6.55;;;4.65;;
39156;SDS011;24889;42.424;25.604;2022-10-29T01:09:50;6.47;;;4.65;;
39156;SDS011;24889;42.424;25.604;2022-10-29T01:40:31;9.73;;;5.50;;
39156;SDS011;24889;42.424;25.604;2022-10-29T01:48:47;13.45;;;6.15;;
39156;SDS011;24889;42.424;25.604;2022-10-29T01:51:19;9.90;;;6.75;;
39156;SDS011;24889;42.424;25.604;2022-10-29T01:53:47;10.38;;;5.47;;
39156;SDS011;24889;42.424;25.604;2022-10-29T01:56:14;8.52;;;5.68;;
39156;SDS011;24889;42.424;25.604;2022-10-29T01:58:41;12.75;;;5.88;;
39156;SDS011;24889;42.424;25.604;2022-10-29T02:12:41;7.45;;;5.28;;
39156;SDS011;24889;42.424;25.604;2022-10-29T02:18:07;13.35;;;6.25;;
39156;SDS011;24889;42.424;25.604;2022-10-29T02:20:33;10.40;;;6.93;;
39156;SDS011;24889;42.424;25.604;2022-10-29T02:27:49;9.17;;;6.07;;
39156;SDS011;24889;42.424;25.604;2022-10-29T02:30:15;9.80;;;5.83;;
39156;SDS011;24889;42.424;25.604;2022-10-29T02:32:41;9.95;;;6.28;;
39156;SDS011;24889;42.424;25.604;2022-10-29T02:35:07;11.37;;;5.73;;
39156;SDS011;24889;42.424;25.604;2022-10-29T02:37:33;11.82;;;5.72;;
39156;SDS011;24889;42.424;25.604;2022-10-29T02:39:58;9.17;;;6.03;;
39156;SDS011;24889;42.424;25.604;2022-10-29T02:42:24;7.87;;;5.40;;
39156;SDS011;24889;42.424;25.604;2022-10-29T02:44:50;8.15;;;5.40;;
39156;SDS011;24889;42.424;25.604;2022-10-29T02:47:16;12.43;;;5.63;;
39156;SDS011;24889;42.424;25.604;2022-10-29T02:49:41;10.88;;;5.22;;
39156;SDS011;24889;42.424;25.604;2022-10-29T02:52:07;10.10;;;5.43;;
39156;SDS011;24889;42.424;25.604;2022-10-29T02:54:32;8.60;;;5.68;;
39156;SDS011;24889;42.424;25.604;2022-10-29T02:56:58;7.27;;;4.80;;
39156;SDS011;24889;42.424;25.604;2022-10-29T02:59:23;10.57;;;5.43;;
39156;SDS011;24889;42.424;25.604;2022-10-29T03:01:49;9.37;;;5.63;;
39156;SDS011;24889;42.424;25.604;2022-10-29T03:04:14;14.97;;;4.70;;
39156;SDS011;24889;42.424;25.604;2022-10-29T03:06:40;8.40;;;5.13;;
39156;SDS011;24889;42.424;25.604;2022-10-29T03:09:05;9.03;;;5.00;;
39156;SDS011;24889;42.424;25.604;2022-10-29T03:11:31;10.53;;;5.00;;
39156;SDS011;24889;42.424;25.604;2022-10-29T03:13:56;7.38;;;4.47;;
39156;SDS011;24889;42.424;25.604;2022-10-29T03:16:22;11.00;;;5.40;;
39156;SDS011;24889;42.424;25.604;2022-10-29T03:18:47;11.40;;;6.03;;
39156;SDS011;24889;42.424;25.604;2022-10-29T03:21:13;10.97;;;6.03;;
39156;SDS011;24889;42.424;25.604;2022-10-29T03:23:38;11.77;;;6.67;;
39156;SDS011;24889;42.424;25.604;2022-10-29T03:26:04;7.50;;;5.03;;
39156;SDS011;24889;42.424;25.604;2022-10-29T03:28:30;9.50;;;5.55;;
39156;SDS011;24889;42.424;25.604;2022-10-29T03:30:56;9.73;;;4.78;;
39156;SDS011;24889;42.424;25.604;2022-10-29T03:33:22;10.82;;;4.93;;
39156;SDS011;24889;42.424;25.604;2022-10-29T03:35:59;7.13;;;4.70;;
39156;SDS011;24889;42.424;25.604;2022-10-29T03:38:27;6.45;;;4.82;;
39156;SDS011;24889;42.424;25.604;2022-10-29T03:40:53;12.45;;;6.45;;
39156;SDS011;24889;42.424;25.604;2022-10-29T03:43:19;7.87;;;4.77;;
39156;SDS011;24889;42.424;25.604;2022-10-29T03:45:51;9.18;;;5.60;;
39156;SDS011;24889;42.424;25.604;2022-10-29T03:48:17;13.60;;;5.68;;
39156;SDS011;24889;42.424;25.604;2022-10-29T03:50:43;10.82;;;6.55;;
39156;SDS011;24889;42.424;25.604;2022-10-29T03:53:09;12.57;;;6.13;;
39156;SDS011;24889;42.424;25.604;2022-10-29T03:55:35;9.52;;;5.85;;
39156;SDS011;24889;42.424;25.604;2022-10-29T03:58:01;10.13;;;6.57;;
39156;SDS011;24889;42.424;25.604;2022-10-29T04:00:26;11.67;;;6.97;;
39156;SDS011;24889;42.424;25.604;2022-10-29T04:02:51;7.63;;;5.90;;
39156;SDS011;24889;42.424;25.604;2022-10-29T04:05:17;9.40;;;5.90;;
39156;SDS011;24889;42.424;25.604;2022-10-29T04:07:42;11.17;;;6.13;;
39156;SDS011;24889;42.424;25.604;2022-10-29T04:10:08;7.73;;;4.97;;
39156;SDS011;24889;42.424;25.604;2022-10-29T04:12:33;8.70;;;5.00;;
39156;SDS011;24889;42.424;25.604;2022-10-29T04:14:59;10.07;;;5.80;;
39156;SDS011;24889;42.424;25.604;2022-10-29T04:17:24;9.07;;;6.13;;
39156;SDS011;24889;42.424;25.604;2022-10-29T04:19:50;9.20;;;5.53;;
39156;SDS011;24889;42.424;25.604;2022-10-29T04:22:15;11.87;;;5.67;;
39156;SDS011;24889;42.424;25.604;2022-10-29T04:24:40;15.23;;;5.87;;
39156;SDS011;24889;42.424;25.604;2022-10-29T04:27:06;9.57;;;5.43;;
39156;SDS011;24889;42.424;25.604;2022-10-29T04:29:31;17.33;;;8.10;;
39156;SDS011;24889;42.424;25.604;2022-10-29T04:31:57;10.87;;;6.43;;
39156;SDS011;24889;42.424;25.604;2022-10-29T04:34:22;9.87;;;6.07;;
39156;SDS011;24889;42.424;25.604;2022-10-29T04:36:48;15.93;;;6.67;;
39156;SDS011;24889;42.424;25.604;2022-10-29T04:39:16;14.68;;;6.75;;
39156;SDS011;24889;42.424;25.604;2022-10-29T04:41:42;12.18;;;6.55;;
39156;SDS011;24889;42.424;25.604;2022-10-29T04:44:07;11.43;;;6.40;;
39156;SDS011;24889;42.424;25.604;2022-10-29T04:46:32;11.10;;;6.53;;
39156;SDS011;24889;42.424;25.604;2022-10-29T04:48:58;8.53;;;6.63;;
39156;SDS011;24889;42.424;25.604;2022-10-29T04:51:24;14.90;;;7.03;;
39156;SDS011;24889;42.424;25.604;2022-10-29T04:53:50;13.30;;;6.35;;
39156;SDS011;24889;42.424;25.604;2022-10-29T04:56:16;13.93;;;8.00;;
39156;SDS011;24889;42.424;25.604;2022-10-29T04:58:42;13.85;;;7.72;;
39156;SDS011;24889;42.424;25.604;2022-10-29T05:01:07;11.40;;;6.87;;
39156;SDS011;24889;42.424;25.604;2022-10-29T05:03:33;9.23;;;6.27;;
39156;SDS011;24889;42.424;25.604;2022-10-29T05:06:05;14.90;;;5.93;;
39156;SDS011;24889;42.424;25.604;2022-10-29T05:08:31;12.65;;;6.35;;
39156;SDS011;24889;42.424;25.604;2022-10-29T05:10:56;15.00;;;6.80;;
39156;SDS011;24889;42.424;25.604;2022-10-29T05:13:25;15.30;;;8.13;;
39156;SDS011;24889;42.424;25.604;2022-10-29T05:15:50;14.03;;;8.80;;
39156;SDS011;24889;42.424;25.604;2022-10-29T05:18:16;13.48;;;8.27;;
39156;SDS011;24889;42.424;25.604;2022-10-29T05:20:42;20.55;;;9.77;;
39156;SDS011;24889;42.424;25.604;2022-10-29T05:23:09;16.13;;;9.35;;
39156;SDS011;24889;42.424;25.604;2022-10-29T05:25:36;15.20;;;10.18;;
39156;SDS011;24889;42.424;25.604;2022-10-29T05:28:11;24.08;;;12.95;;
39156;SDS011;24889;42.424;25.604;2022-10-29T05:30:38;27.23;;;16.70;;
39156;SDS011;24889;42.424;25.604;2022-10-29T05:35:30;21.35;;;12.43;;
39156;SDS011;24889;42.424;25.604;2022-10-29T05:37:57;25.23;;;12.95;;
39156;SDS011;24889;42.424;25.604;2022-10-29T05:40:22;19.70;;;12.03;;
39156;SDS011;24889;42.424;25.604;2022-10-29T05:42:48;23.90;;;12.70;;
39156;SDS011;24889;42.424;25.604;2022-10-29T05:45:14;19.17;;;12.27;;
39156;SDS011;24889;42.424;25.604;2022-10-29T05:47:40;18.95;;;11.55;;
39156;SDS011;24889;42.424;25.604;2022-10-29T05:50:06;17.53;;;10.63;;
39156;SDS011;24889;42.424;25.604;2022-10-29T05:57:23;18.77;;;10.47;;
39156;SDS011;24889;42.424;25.604;2022-10-29T05:59:49;22.03;;;11.30;;
39156;SDS011;24889;42.424;25.604;2022-10-29T06:02:14;16.67;;;12.23;;
39156;SDS011;24889;42.424;25.604;2022-10-29T06:04:39;17.33;;;11.70;;
39156;SDS011;24889;42.424;25.604;2022-10-29T06:07:05;18.57;;;12.67;;
39156;SDS011;24889;42.424;25.604;2022-10-29T06:09:30;21.57;;;11.27;;
39156;SDS011;24889;42.424;25.604;2022-10-29T06:11:56;21.20;;;11.63;;
39156;SDS011;24889;42.424;25.604;2022-10-29T06:14:21;17.37;;;11.50;;
39156;SDS011;24889;42.424;25.604;2022-10-29T06:16:47;18.63;;;12.48;;
39156;SDS011;24889;42.424;25.604;2022-10-29T06:19:13;21.63;;;10.47;;
39156;SDS011;24889;42.424;25.604;2022-10-29T06:21:38;20.40;;;11.40;;
39156;SDS011;24889;42.424;25.604;2022-10-29T06:24:04;17.93;;;11.10;;
39156;SDS011;24889;42.424;25.604;2022-10-29T06:26:30;30.17;;;12.13;;
39156;SDS011;24889;42.424;25.604;2022-10-29T06:28:56;21.67;;;13.15;;
39156;SDS011;24889;42.424;25.604;2022-10-29T06:31:21;40.50;;;17.67;;
39156;SDS011;24889;42.424;25.604;2022-10-29T06:33:46;26.67;;;15.40;;
39156;SDS011;24889;42.424;25.604;2022-10-29T06:36:12;48.47;;;20.30;;
39156;SDS011;24889;42.424;25.604;2022-10-29T06:38:37;48.42;;;20.52;;
39156;SDS011;24889;42.424;25.604;2022-10-29T06:41:03;35.07;;;18.03;;
39156;SDS011;24889;42.424;25.604;2022-10-29T06:43:28;27.40;;;15.45;;
39156;SDS011;24889;42.424;25.604;2022-10-29T06:45:54;37.03;;;15.65;;
39156;SDS011;24889;42.424;25.604;2022-10-29T06:48:19;20.08;;;15.63;;
39156;SDS011;24889;42.424;25.604;2022-10-29T06:50:52;23.23;;;14.35;;
39156;SDS011;24889;42.424;25.604;2022-10-29T06:53:18;22.55;;;14.18;;
39156;SDS011;24889;42.424;25.604;2022-10-29T06:55:44;21.05;;;13.25;;
39156;SDS011;24889;42.424;25.604;2022-10-29T06:58:10;22.85;;;12.60;;
39156;SDS011;24889;42.424;25.604;2022-10-29T07:00:38;19.98;;;11.98;;
39156;SDS011;24889;42.424;25.604;2022-10-29T07:03:04;16.23;;;10.90;;
39156;SDS011;24889;42.424;25.604;2022-10-29T07:07:56;15.95;;;9.70;;
39156;SDS011;24889;42.424;25.604;2022-10-29T07:10:23;20.88;;;11.18;;
39156;SDS011;24889;42.424;25.604;2022-10-29T07:12:52;16.17;;;10.88;;
39156;SDS011;24889;42.424;25.604;2022-10-29T07:15:17;14.73;;;9.63;;
39156;SDS011;24889;42.424;25.604;2022-10-29T07:20:18;12.70;;;9.25;;
39156;SDS011;24889;42.424;25.604;2022-10-29T07:25:10;15.02;;;8.98;;
39156;SDS011;24889;42.424;25.604;2022-10-29T07:32:26;15.87;;;9.67;;
39156;SDS011;24889;42.424;25.604;2022-10-29T07:37:17;18.67;;;9.47;;
39156;SDS011;24889;42.424;25.604;2022-10-29T07:42:08;16.23;;;9.13;;
39156;SDS011;24889;42.424;25.604;2022-10-29T07:49:26;16.17;;;10.57;;
39156;SDS011;24889;42.424;25.604;2022-10-29T07:56:42;17.87;;;11.50;;
39156;SDS011;24889;42.424;25.604;2022-10-29T07:59:07;32.72;;;12.82;;
39156;SDS011;24889;42.424;25.604;2022-10-29T08:01:33;33.97;;;14.35;;
39156;SDS011;24889;42.424;25.604;2022-10-29T08:06:24;20.53;;;11.43;;
39156;SDS011;24889;42.424;25.604;2022-10-29T08:08:49;21.20;;;13.45;;
39156;SDS011;24889;42.424;25.604;2022-10-29T08:13:40;27.60;;;14.53;;
39156;SDS011;24889;42.424;25.604;2022-10-29T08:16:05;29.30;;;15.43;;
39156;SDS011;24889;42.424;25.604;2022-10-29T08:18:31;29.00;;;15.23;;
39156;SDS011;24889;42.424;25.604;2022-10-29T08:23:22;39.00;;;16.60;;
39156;SDS011;24889;42.424;25.604;2022-10-29T08:25:47;35.17;;;16.17;;
39156;SDS011;24889;42.424;25.604;2022-10-29T08:28:13;22.52;;;14.30;;
39156;SDS011;24889;42.424;25.604;2022-10-29T08:30:40;28.80;;;15.77;;
39156;SDS011;24889;42.424;25.604;2022-10-29T08:33:08;30.50;;;15.85;;
39156;SDS011;24889;42.424;25.604;2022-10-29T08:37:59;30.52;;;15.88;;
39156;SDS011;24889;42.424;25.604;2022-10-29T08:40:29;28.60;;;15.88;;
39156;SDS011;24889;42.424;25.604;2022-10-29T08:43:27;30.90;;;15.02;;
39156;SDS011;24889;42.424;25.604;2022-10-29T08:46:20;29.30;;;17.17;;
39156;SDS011;24889;42.424;25.604;2022-10-29T08:48:59;26.70;;;14.15;;
39156;SDS011;24889;42.424;25.604;2022-10-29T08:51:30;30.10;;;15.98;;
39156;SDS011;24889;42.424;25.604;2022-10-29T08:54:00;24.73;;;14.88;;
39156;SDS011;24889;42.424;25.604;2022-10-29T08:56:27;28.90;;;15.48;;
39156;SDS011;24889;42.424;25.604;2022-10-29T09:01:39;24.13;;;15.07;;
39156;SDS011;24889;42.424;25.604;2022-10-29T09:04:24;21.33;;;14.52;;
39156;SDS011;24889;42.424;25.604;2022-10-29T09:07:13;24.92;;;14.57;;
39156;SDS011;24889;42.424;25.604;2022-10-29T09:20:45;22.55;;;14.55;;
39156;SDS011;24889;42.424;25.604;2022-10-29T09:29:40;24.80;;;13.55;;
39156;SDS011;24889;42.424;25.604;2022-10-29T09:32:13;24.60;;;12.98;;
39156;SDS011;24889;42.424;25.604;2022-10-29T09:34:55;26.80;;;12.82;;
39156;SDS011;24889;42.424;25.604;2022-10-29T09:37:38;27.90;;;13.32;;
39156;SDS011;24889;42.424;25.604;2022-10-29T09:40:21;19.92;;;11.55;;
39156;SDS011;24889;42.424;25.604;2022-10-29T09:42:53;20.08;;;10.90;;
39156;SDS011;24889;42.424;25.604;2022-10-29T09:45:22;18.58;;;11.45;;
39156;SDS011;24889;42.424;25.604;2022-10-29T09:50:36;24.50;;;11.82;;
39156;SDS011;24889;42.424;25.604;2022-10-29T09:53:06;16.08;;;9.63;;
39156;SDS011;24889;42.424;25.604;2022-10-29T09:55:37;19.67;;;10.52;;
39156;SDS011;24889;42.424;25.604;2022-10-29T09:58:04;27.13;;;12.50;;
39156;SDS011;24889;42.424;25.604;2022-10-29T10:00:31;18.30;;;10.93;;
39156;SDS011;24889;42.424;25.604;2022-10-29T10:02:58;20.88;;;10.95;;
39156;SDS011;24889;42.424;25.604;2022-10-29T10:05:35;21.05;;;11.63;;
39156;SDS011;24889;42.424;25.604;2022-10-29T10:08:19;19.40;;;11.43;;
39156;SDS011;24889;42.424;25.604;2022-10-29T10:11:04;20.27;;;11.98;;
39156;SDS011;24889;42.424;25.604;2022-10-29T10:13:32;27.73;;;14.00;;
39156;SDS011;24889;42.424;25.604;2022-10-29T10:16:03;27.30;;;14.23;;
39156;SDS011;24889;42.424;25.604;2022-10-29T10:26:04;22.05;;;11.35;;
39156;SDS011;24889;42.424;25.604;2022-10-29T10:31:30;18.35;;;10.68;;
39156;SDS011;24889;42.424;25.604;2022-10-29T10:33:56;20.80;;;11.10;;
39156;SDS011;24889;42.424;25.604;2022-10-29T10:36:25;22.23;;;10.73;;
39156;SDS011;24889;42.424;25.604;2022-10-29T10:38:54;20.10;;;10.63;;
39156;SDS011;24889;42.424;25.604;2022-10-29T10:41:23;18.25;;;10.25;;
39156;SDS011;24889;42.424;25.604;2022-10-29T10:43:59;15.38;;;9.65;;
39156;SDS011;24889;42.424;25.604;2022-10-29T10:46:28;17.33;;;9.77;;
39156;SDS011;24889;42.424;25.604;2022-10-29T10:51:30;22.10;;;10.55;;
39156;SDS011;24889;42.424;25.604;2022-10-29T10:53:58;15.50;;;9.27;;
39156;SDS011;24889;42.424;25.604;2022-10-29T10:56:25;17.25;;;8.88;;
39156;SDS011;24889;42.424;25.604;2022-10-29T11:01:24;14.70;;;10.98;;
39156;SDS011;24889;42.424;25.604;2022-10-29T11:03:57;23.17;;;12.95;;
39156;SDS011;24889;42.424;25.604;2022-10-29T11:06:34;22.17;;;11.07;;
39156;SDS011;24889;42.424;25.604;2022-10-29T11:11:42;16.45;;;10.23;;
39156;SDS011;24889;42.424;25.604;2022-10-29T11:14:32;19.38;;;12.13;;
39156;SDS011;24889;42.424;25.604;2022-10-29T11:17:01;19.83;;;11.13;;
39156;SDS011;24889;42.424;25.604;2022-10-29T11:22:05;23.20;;;11.32;;
39156;SDS011;24889;42.424;25.604;2022-10-29T11:27:31;20.90;;;11.10;;
39156;SDS011;24889;42.424;25.604;2022-10-29T11:40:35;21.17;;;11.50;;
39156;SDS011;24889;42.424;25.604;2022-10-29T11:43:12;15.73;;;9.70;;
39156;SDS011;24889;42.424;25.604;2022-10-29T11:46:01;15.40;;;8.70;;
39156;SDS011;24889;42.424;25.604;2022-10-29T11:51:31;13.65;;;9.15;;
39156;SDS011;24889;42.424;25.604;2022-10-29T11:57:04;12.80;;;7.38;;
39156;SDS011;24889;42.424;25.604;2022-10-29T12:30:31;11.93;;;5.93;;
39156;SDS011;24889;42.424;25.604;2022-10-29T12:41:03;11.52;;;4.90;;
39156;SDS011;24889;42.424;25.604;2022-10-29T12:43:34;8.88;;;4.38;;
39156;SDS011;24889;42.424;25.604;2022-10-29T12:46:05;6.95;;;5.13;;
39156;SDS011;24889;42.424;25.604;2022-10-29T12:56:10;8.43;;;5.20;;
39156;SDS011;24889;42.424;25.604;2022-10-29T12:58:44;10.95;;;5.00;;
39156;SDS011;24889;42.424;25.604;2022-10-29T13:09:13;9.40;;;4.70;;
39156;SDS011;24889;42.424;25.604;2022-10-29T13:11:42;14.13;;;4.97;;
39156;SDS011;24889;42.424;25.604;2022-10-29T13:14:12;9.90;;;4.50;;
39156;SDS011;24889;42.424;25.604;2022-10-29T13:16:44;10.88;;;4.45;;
39156;SDS011;24889;42.424;25.604;2022-10-29T13:19:15;10.18;;;4.60;;
39156;SDS011;24889;42.424;25.604;2022-10-29T13:21:57;8.98;;;3.97;;
39156;SDS011;24889;42.424;25.604;2022-10-29T13:24:43;6.95;;;3.92;;
39156;SDS011;24889;42.424;25.604;2022-10-29T13:29:49;7.70;;;4.63;;
39156;SDS011;24889;42.424;25.604;2022-10-29T13:32:35;9.23;;;4.60;;
39156;SDS011;24889;42.424;25.604;2022-10-29T13:43:19;11.45;;;4.85;;
39156;SDS011;24889;42.424;25.604;2022-10-29T13:45:44;7.60;;;4.05;;
39156;SDS011;24889;42.424;25.604;2022-10-29T13:50:49;10.55;;;6.15;;
39156;SDS011;24889;42.424;25.604;2022-10-29T13:53:17;12.40;;;4.70;;
39156;SDS011;24889;42.424;25.604;2022-10-29T13:55:48;7.93;;;4.70;;
39156;SDS011;24889;42.424;25.604;2022-10-29T13:58:16;12.63;;;4.78;;
39156;SDS011;24889;42.424;25.604;2022-10-29T14:00:53;9.52;;;4.97;;
39156;SDS011;24889;42.424;25.604;2022-10-29T14:03:22;9.52;;;4.50;;
39156;SDS011;24889;42.424;25.604;2022-10-29T14:05:57;8.20;;;4.85;;
39156;SDS011;24889;42.424;25.604;2022-10-29T14:11:23;6.57;;;4.38;;
39156;SDS011;24889;42.424;25.604;2022-10-29T14:13:53;10.00;;;5.00;;
39156;SDS011;24889;42.424;25.604;2022-10-29T14:16:24;7.75;;;4.88;;
39156;SDS011;24889;42.424;25.604;2022-10-29T14:18:53;10.43;;;5.40;;
39156;SDS011;24889;42.424;25.604;2022-10-29T14:21:25;11.55;;;6.65;;
39156;SDS011;24889;42.424;25.604;2022-10-29T14:26:28;14.10;;;6.97;;
39156;SDS011;24889;42.424;25.604;2022-10-29T14:28:55;14.52;;;6.75;;
39156;SDS011;24889;42.424;25.604;2022-10-29T14:31:37;15.77;;;9.27;;
39156;SDS011;24889;42.424;25.604;2022-10-29T14:34:02;13.27;;;8.97;;
39156;SDS011;24889;42.424;25.604;2022-10-29T14:36:38;21.10;;;9.53;;
39156;SDS011;24889;42.424;25.604;2022-10-29T14:41:51;21.15;;;10.35;;
39156;SDS011;24889;42.424;25.604;2022-10-29T14:44:19;20.50;;;11.30;;
39156;SDS011;24889;42.424;25.604;2022-10-29T14:46:54;23.25;;;10.88;;
39156;SDS011;24889;42.424;25.604;2022-10-29T14:49:30;28.73;;;15.07;;
39156;SDS011;24889;42.424;25.604;2022-10-29T14:52:00;31.33;;;14.13;;
39156;SDS011;24889;42.424;25.604;2022-10-29T14:54:30;29.98;;;13.57;;
39156;SDS011;24889;42.424;25.604;2022-10-29T14:57:03;25.45;;;11.85;;
39156;SDS011;24889;42.424;25.604;2022-10-29T14:59:35;23.90;;;11.25;;
39156;SDS011;24889;42.424;25.604;2022-10-29T15:02:03;26.13;;;11.88;;
39156;SDS011;24889;42.424;25.604;2022-10-29T15:04:44;25.70;;;13.32;;
39156;SDS011;24889;42.424;25.604;2022-10-29T15:12:35;34.00;;;17.52;;
39156;SDS011;24889;42.424;25.604;2022-10-29T15:15:06;28.27;;;14.50;;
39156;SDS011;24889;42.424;25.604;2022-10-29T15:17:33;24.67;;;12.68;;
39156;SDS011;24889;42.424;25.604;2022-10-29T15:20:04;23.85;;;12.52;;
39156;SDS011;24889;42.424;25.604;2022-10-29T15:22:32;23.27;;;12.88;;
39156;SDS011;24889;42.424;25.604;2022-10-29T15:25:01;22.98;;;15.50;;
39156;SDS011;24889;42.424;25.604;2022-10-29T15:27:29;36.10;;;19.33;;
39156;SDS011;24889;42.424;25.604;2022-10-29T15:29:54;42.13;;;19.17;;
39156;SDS011;24889;42.424;25.604;2022-10-29T15:32:20;35.97;;;17.75;;
39156;SDS011;24889;42.424;25.604;2022-10-29T15:34:50;36.93;;;17.90;;
39156;SDS011;24889;42.424;25.604;2022-10-29T15:40:17;49.80;;;20.47;;
39156;SDS011;24889;42.424;25.604;2022-10-29T15:42:48;49.88;;;21.05;;
39156;SDS011;24889;42.424;25.604;2022-10-29T15:45:15;59.37;;;24.93;;
39156;SDS011;24889;42.424;25.604;2022-10-29T15:47:53;55.63;;;21.73;;
39156;SDS011;24889;42.424;25.604;2022-10-29T15:50:36;42.85;;;19.55;;
39156;SDS011;24889;42.424;25.604;2022-10-29T15:53:03;39.33;;;19.20;;
39156;SDS011;24889;42.424;25.604;2022-10-29T15:55:34;37.97;;;17.10;;
39156;SDS011;24889;42.424;25.604;2022-10-29T15:58:10;34.47;;;16.92;;
39156;SDS011;24889;42.424;25.604;2022-10-29T16:03:14;24.48;;;13.80;;
39156;SDS011;24889;42.424;25.604;2022-10-29T16:05:45;26.80;;;14.57;;
39156;SDS011;24889;42.424;25.604;2022-10-29T16:08:19;26.73;;;14.20;;
39156;SDS011;24889;42.424;25.604;2022-10-29T16:10:57;27.85;;;13.98;;
39156;SDS011;24889;42.424;25.604;2022-10-29T16:13:25;29.80;;;16.00;;
39156;SDS011;24889;42.424;25.604;2022-10-29T16:15:52;24.65;;;14.30;;
39156;SDS011;24889;42.424;25.604;2022-10-29T16:18:18;26.27;;;14.47;;
39156;SDS011;24889;42.424;25.604;2022-10-29T16:20:44;23.40;;;14.18;;
39156;SDS011;24889;42.424;25.604;2022-10-29T16:23:10;23.42;;;14.07;;
39156;SDS011;24889;42.424;25.604;2022-10-29T16:25:36;22.90;;;13.80;;
39156;SDS011;24889;42.424;25.604;2022-10-29T16:28:02;22.23;;;12.23;;
39156;SDS011;24889;42.424;25.604;2022-10-29T16:30:28;24.52;;;13.20;;
39156;SDS011;24889;42.424;25.604;2022-10-29T16:32:53;16.45;;;11.85;;
39156;SDS011;24889;42.424;25.604;2022-10-29T16:35:20;16.98;;;11.52;;
39156;SDS011;24889;42.424;25.604;2022-10-29T16:37:48;20.20;;;12.40;;
39156;SDS011;24889;42.424;25.604;2022-10-29T16:47:34;20.73;;;12.23;;
39156;SDS011;24889;42.424;25.604;2022-10-29T16:50:00;30.85;;;12.57;;
39156;SDS011;24889;42.424;25.604;2022-10-29T16:52:25;25.38;;;11.25;;
39156;SDS011;24889;42.424;25.604;2022-10-29T16:54:51;30.53;;;12.53;;
39156;SDS011;24889;42.424;25.604;2022-10-29T16:57:17;21.63;;;11.30;;
39156;SDS011;24889;42.424;25.604;2022-10-29T16:59:42;20.70;;;12.50;;
39156;SDS011;24889;42.424;25.604;2022-10-29T17:02:11;25.90;;;14.27;;
39156;SDS011;24889;42.424;25.604;2022-10-29T17:04:36;41.65;;;14.70;;
39156;SDS011;24889;42.424;25.604;2022-10-29T17:07:01;26.60;;;14.10;;
39156;SDS011;24889;42.424;25.604;2022-10-29T17:09:27;24.57;;;12.47;;
39156;SDS011;24889;42.424;25.604;2022-10-29T17:11:55;19.48;;;11.65;;
39156;SDS011;24889;42.424;25.604;2022-10-29T17:14:21;21.77;;;11.80;;
39156;SDS011;24889;42.424;25.604;2022-10-29T17:16:47;23.95;;;10.40;;
39156;SDS011;24889;42.424;25.604;2022-10-29T17:19:13;20.13;;;10.93;;
39156;SDS011;24889;42.424;25.604;2022-10-29T17:21:38;28.07;;;10.57;;
39156;SDS011;24889;42.424;25.604;2022-10-29T17:24:04;15.77;;;8.57;;
39156;SDS011;24889;42.424;25.604;2022-10-29T17:26:30;20.40;;;10.20;;
39156;SDS011;24889;42.424;25.604;2022-10-29T17:28:55;18.37;;;10.17;;
39156;SDS011;24889;42.424;25.604;2022-10-29T17:31:21;20.57;;;10.43;;
39156;SDS011;24889;42.424;25.604;2022-10-29T17:33:46;21.63;;;11.43;;
39156;SDS011;24889;42.424;25.604;2022-10-29T17:36:12;22.00;;;10.70;;
39156;SDS011;24889;42.424;25.604;2022-10-29T17:38:39;18.20;;;9.13;;
39156;SDS011;24889;42.424;25.604;2022-10-29T17:41:05;17.20;;;9.98;;
39156;SDS011;24889;42.424;25.604;2022-10-29T17:43:31;20.63;;;9.63;;
39156;SDS011;24889;42.424;25.604;2022-10-29T17:45:57;15.77;;;9.80;;
39156;SDS011;24889;42.424;25.604;2022-10-29T17:48:22;18.35;;;9.45;;
39156;SDS011;24889;42.424;25.604;2022-10-29T17:50:55;19.17;;;10.27;;
39156;SDS011;24889;42.424;25.604;2022-10-29T17:53:24;20.08;;;9.57;;
39156;SDS011;24889;42.424;25.604;2022-10-29T17:55:51;19.70;;;9.35;;
39156;SDS011;24889;42.424;25.604;2022-10-29T17:58:20;16.67;;;9.50;;
39156;SDS011;24889;42.424;25.604;2022-10-29T18:00:45;15.40;;;7.95;;
39156;SDS011;24889;42.424;25.604;2022-10-29T18:03:12;15.00;;;9.07;;
39156;SDS011;24889;42.424;25.604;2022-10-29T18:05:38;19.80;;;9.27;;
39156;SDS011;24889;42.424;25.604;2022-10-29T18:08:03;19.92;;;9.30;;
39156;SDS011;24889;42.424;25.604;2022-10-29T18:10:32;12.77;;;8.07;;
39156;SDS011;24889;42.424;25.604;2022-10-29T18:12:58;15.07;;;9.88;;
39156;SDS011;24889;42.424;25.604;2022-10-29T18:15:24;15.77;;;9.33;;
39156;SDS011;24889;42.424;25.604;2022-10-29T18:17:49;24.73;;;10.20;;
39156;SDS011;24889;42.424;25.604;2022-10-29T18:20:15;26.08;;;11.32;;
39156;SDS011;24889;42.424;25.604;2022-10-29T18:22:41;22.85;;;10.60;;
39156;SDS011;24889;42.424;25.604;2022-10-29T18:25:07;21.30;;;10.15;;
39156;SDS011;24889;42.424;25.604;2022-10-29T18:27:33;23.17;;;11.75;;
39156;SDS011;24889;42.424;25.604;2022-10-29T18:29:59;22.00;;;11.50;;
39156;SDS011;24889;42.424;25.604;2022-10-29T18:32:24;23.97;;;10.70;;
39156;SDS011;24889;42.424;25.604;2022-10-29T18:34:49;20.80;;;10.67;;
39156;SDS011;24889;42.424;25.604;2022-10-29T18:37:15;21.70;;;11.30;;
39156;SDS011;24889;42.424;25.604;2022-10-29T18:39:40;19.50;;;11.00;;
39156;SDS011;24889;42.424;25.604;2022-10-29T18:42:06;17.47;;;9.40;;
39156;SDS011;24889;42.424;25.604;2022-10-29T18:44:31;21.03;;;9.63;;
39156;SDS011;24889;42.424;25.604;2022-10-29T18:46:57;18.97;;;9.33;;
39156;SDS011;24889;42.424;25.604;2022-10-29T18:49:22;19.53;;;9.43;;